Sagrada, Missouri
Current Conditions -  °F | °C
As of 6:15 AM on Monday 26 Jan 2015 (Local Time) from KH21 Reporting Station
Broken Clouds Broken Clouds  
Wind Chill: -3°   Ceiling: 1800
Heat Index:   Visibility: 10mi
Dew Point: -1°   Wind: 5mph
Humidity: 93%   Direction: 240°WSW
Pressure: 30.05"   Gusts: NA
Location:  38.1656°N, 93.1481°W
Report Text: KH21 261215Z AUTO 24004KT 10SM BKN018 00/M01 A3005 RMK AO2
Loading
Personal Weather Stations






























Interactive Weather Map New forecast layout! Learn more

10-Day Weather Forecast

Advertisements
Track Severe Weather on mobile